Time;durP1;ratioP1;P1;durP2;ratioP2;P2;SDS_P1;SDS_P2;PMS_P1;PMS_P2;Temp;Humidity;BMP_temperature;BMP_pressure;BME280_temperature;BME280_humidity;BME280_pressure;Samples;Min_cycle;Max_cycle;Signal;HPM_P1;HPM_P2
2023/12/08 00:02:01;;;;;;;10.57;5.15;;;;;;;-144.78;100.00;64918.72;5021982;28;20022;-77
2023/12/08 00:04:26;;;;;;;10.88;5.05;;;;;;;-144.78;100.00;64918.72;5006644;28;20029;-78
2023/12/08 00:06:52;;;;;;;10.60;5.38;;;;;;;-144.78;100.00;64918.72;5005489;28;20058;-78
2023/12/08 00:09:17;;;;;;;9.75;4.88;;;;;;;-144.78;100.00;64918.72;5005931;28;20030;-78
2023/12/08 00:11:42;;;;;;;9.65;5.18;;;;;;;-144.78;100.00;64918.72;5006355;28;20034;-79
2023/12/08 00:14:07;;;;;;;13.15;5.50;;;;;;;-144.78;100.00;64918.72;4997700;28;20018;-78
2023/12/08 00:16:33;;;;;;;11.52;5.28;;;;;;;-144.78;100.00;64918.72;5003410;28;20042;-78
2023/12/08 00:18:58;;;;;;;21.40;6.75;;;;;;;-144.78;100.00;64918.72;4995639;28;20053;-79
2023/12/08 00:21:25;;;;;;;10.88;5.50;;;;;;;-144.78;100.00;64918.72;4999548;28;20106;-78
2023/12/08 00:23:51;;;;;;;11.32;5.40;;;;;;;-144.78;100.00;64918.72;5022133;28;20053;-78
2023/12/08 00:26:16;;;;;;;12.63;5.70;;;;;;;-144.78;100.00;64918.72;5006517;28;20204;-78
2023/12/08 00:28:42;;;;;;;9.93;5.47;;;;;;;-144.78;100.00;64918.72;5022138;28;20207;-78
2023/12/08 00:31:07;;;;;;;10.45;5.53;;;;;;;-144.78;100.00;64918.72;5003709;28;20079;-78
2023/12/08 00:33:32;;;;;;;15.05;5.70;;;;;;;-144.78;100.00;64918.72;5003050;28;20027;-78
2023/12/08 00:35:57;;;;;;;10.05;4.95;;;;;;;-144.78;100.00;64918.72;4990582;28;20054;-78
2023/12/08 00:38:23;;;;;;;10.95;5.38;;;;;;;-144.78;100.00;64918.72;5017283;28;20276;-78
2023/12/08 00:40:49;;;;;;;12.02;5.20;;;;;;;-144.78;100.00;64918.72;5004491;28;20018;-78
2023/12/08 00:43:15;;;;;;;9.73;4.90;;;;;;;-144.78;100.00;64918.72;5003184;28;20026;-79
2023/12/08 00:45:40;;;;;;;9.65;4.88;;;;;;;-144.78;100.00;64918.72;5006242;28;20026;-78
2023/12/08 00:48:05;;;;;;;10.68;6.05;;;;;;;-144.78;100.00;64918.72;5007313;28;20022;-79
2023/12/08 00:50:31;;;;;;;11.98;5.78;;;;;;;-144.78;100.00;64918.72;5006380;28;20273;-78
2023/12/08 00:52:56;;;;;;;17.30;7.63;;;;;;;-144.78;100.00;64918.72;5021322;28;20072;-79
2023/12/08 00:55:21;;;;;;;12.18;5.85;;;;;;;-144.78;100.00;64918.72;5026667;28;20029;-78
2023/12/08 00:57:47;;;;;;;10.43;5.63;;;;;;;-144.78;100.00;64918.72;5017646;28;20026;-78
2023/12/08 01:00:13;;;;;;;15.55;6.50;;;;;;;-144.78;100.00;64918.72;4999387;28;20030;-78
2023/12/08 01:02:38;;;;;;;13.82;6.57;;;;;;;-144.78;100.00;64918.72;5005729;28;20022;-78
2023/12/08 01:05:05;;;;;;;11.00;5.57;;;;;;;-144.78;100.00;64918.72;5004902;28;20026;-78
2023/12/08 01:07:30;;;;;;;13.35;5.80;;;;;;;-144.78;100.00;64918.72;5004190;28;20022;-77
2023/12/08 01:09:55;;;;;;;9.70;5.78;;;;;;;-144.78;100.00;64918.72;5015199;28;20048;-78
2023/12/08 01:12:20;;;;;;;10.20;5.07;;;;;;;-144.78;100.00;64918.72;5020219;28;20053;-79
2023/12/08 01:14:46;;;;;;;8.52;5.15;;;;;;;-144.78;100.00;64918.72;5005755;28;20018;-78
2023/12/08 01:17:11;;;;;;;10.18;5.43;;;;;;;-144.78;100.00;64918.72;5005486;28;20231;-78
2023/12/08 01:19:36;;;;;;;12.75;5.05;;;;;;;-144.78;100.00;64918.72;4997833;28;20018;-77
2023/12/08 01:22:02;;;;;;;8.10;4.30;;;;;;;-144.78;100.00;64918.72;4999950;28;20308;-77
2023/12/08 01:24:27;;;;;;;11.35;5.50;;;;;;;-144.78;100.00;64918.72;5004290;28;20034;-77
2023/12/08 01:26:52;;;;;;;10.32;4.80;;;;;;;-144.78;100.00;64918.72;5004106;28;20022;-77
2023/12/08 01:29:18;;;;;;;8.38;4.43;;;;;;;-144.78;100.00;64918.72;5004917;28;20030;-77
2023/12/08 01:31:43;;;;;;;10.73;4.80;;;;;;;-144.78;100.00;64918.72;5004095;28;20022;-77
2023/12/08 01:34:08;;;;;;;9.70;4.70;;;;;;;-144.78;100.00;64918.72;5004843;28;20046;-77
2023/12/08 01:36:33;;;;;;;9.52;4.72;;;;;;;-144.78;100.00;64918.72;5013702;28;20018;-77
2023/12/08 01:38:59;;;;;;;10.35;5.20;;;;;;;-144.78;100.00;64918.72;5002925;28;20034;-77
2023/12/08 01:41:24;;;;;;;12.43;5.03;;;;;;;-144.78;100.00;64918.72;4995420;28;20053;-77
2023/12/08 01:43:49;;;;;;;9.55;4.78;;;;;;;-144.78;100.00;64918.72;5008465;28;20275;-77
2023/12/08 01:46:17;;;;;;;11.20;5.50;;;;;;;-144.78;100.00;64918.72;5000609;28;20344;-77
2023/12/08 01:48:43;;;;;;;9.45;5.10;;;;;;;-144.78;100.00;64918.72;4996354;28;20027;-78
2023/12/08 01:51:11;;;;;;;12.82;5.53;;;;;;;-144.78;100.00;64918.72;4986834;28;20102;-76
2023/12/08 01:53:37;;;;;;;12.10;5.18;;;;;;;-144.78;100.00;64918.72;5004970;28;20081;-77
2023/12/08 01:56:03;;;;;;;12.70;5.28;;;;;;;-144.78;100.00;64918.72;5004552;28;20347;-77
2023/12/08 01:58:28;;;;;;;10.30;5.20;;;;;;;-144.78;100.00;64918.72;5003308;28;20346;-78
2023/12/08 02:00:55;;;;;;;10.48;5.68;;;;;;;-144.78;100.00;64918.72;5016534;28;20026;-77
2023/12/08 02:03:22;;;;;;;11.45;5.97;;;;;;;-144.78;100.00;64918.72;5004873;28;20022;-78
2023/12/08 02:05:48;;;;;;;10.52;5.35;;;;;;;-144.78;100.00;64918.72;5004418;28;20090;-77
2023/12/08 02:08:14;;;;;;;10.15;5.60;;;;;;;-144.78;100.00;64918.72;5002123;28;20049;-78
2023/12/08 02:10:39;;;;;;;11.70;5.50;;;;;;;-144.78;100.00;64918.72;4995873;28;20022;-78
2023/12/08 02:13:05;;;;;;;9.88;5.55;;;;;;;-144.78;100.00;64918.72;5004685;28;20034;-79
2023/12/08 02:15:30;;;;;;;10.75;5.60;;;;;;;-144.78;100.00;64918.72;5004981;28;20076;-78
2023/12/08 02:17:57;;;;;;;10.02;5.22;;;;;;;-144.78;100.00;64918.72;5001045;28;20278;-78
2023/12/08 02:20:22;;;;;;;11.40;5.85;;;;;;;-144.78;100.00;64918.72;4995584;28;20023;-78
2023/12/08 02:22:47;;;;;;;11.52;5.93;;;;;;;-144.78;100.00;64918.72;4987822;28;20046;-77
2023/12/08 02:25:13;;;;;;;11.52;5.57;;;;;;;-144.78;100.00;64918.72;5000811;28;20227;-78
2023/12/08 02:27:38;;;;;;;11.32;5.75;;;;;;;-144.78;100.00;64918.72;5004801;28;20026;-77
2023/12/08 02:30:04;;;;;;;14.60;6.07;;;;;;;-144.78;100.00;64918.72;5009096;28;20327;-78
2023/12/08 02:32:41;;;;;;;14.05;6.72;;;;;;;-144.78;100.00;64918.72;5002983;28;20037;-78
2023/12/08 02:35:08;;;;;;;11.43;5.82;;;;;;;-144.78;100.00;64918.72;5011490;28;20024;-77
2023/12/08 02:37:36;;;;;;;16.45;5.95;;;;;;;-144.78;100.00;64918.72;4993999;28;20022;-77
2023/12/08 02:40:04;;;;;;;7.43;3.78;;;;;;;-144.78;100.00;64918.72;5016673;28;20370;-77
2023/12/08 02:42:30;;;;;;;13.80;6.55;;;;;;;-144.78;100.00;64918.72;4999972;28;20046;-78
2023/12/08 02:44:55;;;;;;;15.40;6.22;;;;;;;-144.78;100.00;64918.72;4999890;28;20030;-79
2023/12/08 02:47:20;;;;;;;12.55;6.03;;;;;;;-144.78;100.00;64918.72;5001766;28;20033;-78
2023/12/08 02:49:46;;;;;;;10.35;5.07;;;;;;;-144.78;100.00;64918.72;4999059;28;20244;-78
2023/12/08 02:52:11;;;;;;;10.95;5.63;;;;;;;-144.78;100.00;64918.72;5017571;28;20050;-78
2023/12/08 02:54:36;;;;;;;14.90;6.53;;;;;;;-144.78;100.00;64918.72;5009466;28;20018;-79
2023/12/08 02:57:01;;;;;;;12.70;6.00;;;;;;;-144.78;100.00;64918.72;5007518;28;20026;-77
2023/12/08 02:59:27;;;;;;;13.60;5.43;;;;;;;-144.78;100.00;64918.72;5002317;28;20105;-78
2023/12/08 03:01:52;;;;;;;11.00;5.70;;;;;;;-144.78;100.00;64918.72;4991565;28;20041;-77
2023/12/08 03:04:17;;;;;;;11.60;5.28;;;;;;;-144.78;100.00;64918.72;5009503;28;20116;-78
2023/12/08 03:06:42;;;;;;;11.15;5.35;;;;;;;-144.78;100.00;64918.72;5013969;28;20048;-78
2023/12/08 03:09:09;;;;;;;10.68;5.75;;;;;;;-144.78;100.00;64918.72;5013024;28;20028;-78
2023/12/08 03:11:34;;;;;;;12.70;4.95;;;;;;;-144.78;100.00;64918.72;5002115;28;20315;-78
2023/12/08 03:14:00;;;;;;;11.77;5.53;;;;;;;-144.78;100.00;64918.72;5004142;28;20027;-78
2023/12/08 03:16:25;;;;;;;10.32;5.45;;;;;;;-144.78;100.00;64918.72;5001766;28;20097;-78
2023/12/08 03:18:50;;;;;;;14.15;5.32;;;;;;;-144.78;100.00;64918.72;4990766;28;20034;-78
2023/12/08 03:21:22;;;;;;;9.82;5.15;;;;;;;-144.78;100.00;64918.72;5015109;28;20088;-78
2023/12/08 03:23:48;;;;;;;10.98;5.05;;;;;;;-144.78;100.00;64918.72;5000878;28;20031;-78
2023/12/08 03:26:13;;;;;;;10.80;4.97;;;;;;;-144.78;100.00;64918.72;5007460;28;20045;-78
2023/12/08 03:28:38;;;;;;;11.50;5.28;;;;;;;-144.78;100.00;64918.72;5005169;28;20231;-78
2023/12/08 03:31:04;;;;;;;10.52;5.05;;;;;;;-144.78;100.00;64918.72;5019806;28;20072;-78
2023/12/08 03:33:29;;;;;;;9.57;5.13;;;;;;;-144.78;100.00;64918.72;5009790;28;20098;-79
2023/12/08 03:35:54;;;;;;;11.02;5.45;;;;;;;-144.78;100.00;64918.72;4993980;28;20320;-78
2023/12/08 03:38:20;;;;;;;9.90;5.45;;;;;;;-144.78;100.00;64918.72;5002890;28;20030;-79
2023/12/08 03:40:45;;;;;;;9.93;4.75;;;;;;;-144.78;100.00;64918.72;4989938;28;20014;-78
2023/12/08 03:43:10;;;;;;;8.38;5.03;;;;;;;-144.78;100.00;64918.72;5006367;28;20060;-79
2023/12/08 03:45:35;;;;;;;10.90;5.40;;;;;;;-144.78;100.00;64918.72;4998545;28;20107;-79
2023/12/08 03:48:01;;;;;;;9.40;5.40;;;;;;;-144.78;100.00;64918.72;5003877;28;20026;-78
2023/12/08 03:50:26;;;;;;;10.30;4.60;;;;;;;-144.78;100.00;64918.72;5000355;28;20259;-78
2023/12/08 03:52:54;;;;;;;12.35;6.05;;;;;;;-144.78;100.00;64918.72;5004692;28;20054;-77
2023/12/08 03:55:19;;;;;;;11.98;4.95;;;;;;;-144.78;100.00;64918.72;5003908;28;20335;-78
2023/12/08 03:57:45;;;;;;;11.07;5.07;;;;;;;-144.78;100.00;64918.72;5007742;28;20022;-79
2023/12/08 04:00:11;;;;;;;11.13;4.68;;;;;;;-144.78;100.00;64918.72;5003576;28;20102;-78
2023/12/08 04:02:36;;;;;;;12.48;5.30;;;;;;;-144.78;100.00;64918.72;5003422;28;20029;-79
2023/12/08 04:05:02;;;;;;;11.52;4.70;;;;;;;-144.78;100.00;64918.72;5018989;28;20022;-78
2023/12/08 04:07:27;;;;;;;10.15;4.75;;;;;;;-144.78;100.00;64918.72;5006848;28;20033;-78
2023/12/08 04:09:53;;;;;;;9.85;5.18;;;;;;;-144.78;100.00;64918.72;5005285;28;20045;-78
2023/12/08 04:12:20;;;;;;;11.00;5.38;;;;;;;-144.78;100.00;64918.72;5021791;28;20331;-78
2023/12/08 04:14:45;;;;;;;8.88;5.03;;;;;;;-144.78;100.00;64918.72;5021702;28;20093;-77
2023/12/08 04:17:11;;;;;;;9.02;4.43;;;;;;;-144.78;100.00;64918.72;4994171;28;20026;-77
2023/12/08 04:19:37;;;;;;;13.55;4.97;;;;;;;-144.78;100.00;64918.72;5005548;28;20196;-77
2023/12/08 04:22:02;;;;;;;8.75;4.40;;;;;;;-144.78;100.00;64918.72;5015256;28;20054;-77
2023/12/08 04:24:28;;;;;;;13.32;6.22;;;;;;;-144.78;100.00;64918.72;5032986;22;20046;-76
2023/12/08 04:26:53;;;;;;;11.93;5.28;;;;;;;-144.78;100.00;64918.72;5016086;28;20053;-76
2023/12/08 04:29:18;;;;;;;11.70;4.90;;;;;;;-144.78;100.00;64918.72;5018418;28;20018;-76
2023/12/08 04:31:44;;;;;;;7.25;4.35;;;;;;;-144.78;100.00;64918.72;5014521;28;20022;-76
2023/12/08 04:34:09;;;;;;;10.50;4.78;;;;;;;-144.78;100.00;64918.72;5004289;28;20032;-76
2023/12/08 04:36:35;;;;;;;9.80;4.80;;;;;;;-144.78;100.00;64918.72;5009731;28;20311;-76
2023/12/08 04:39:00;;;;;;;11.30;5.53;;;;;;;-144.78;100.00;64918.72;5015112;28;20042;-76
2023/12/08 04:41:25;;;;;;;9.70;4.45;;;;;;;-144.78;100.00;64918.72;5028602;28;20034;-76
2023/12/08 04:43:50;;;;;;;12.25;4.75;;;;;;;-144.78;100.00;64918.72;5016376;28;20026;-76
2023/12/08 04:46:17;;;;;;;9.07;4.95;;;;;;;-144.78;100.00;64918.72;5040539;28;20025;-76
2023/12/08 04:48:43;;;;;;;10.82;4.72;;;;;;;-144.78;100.00;64918.72;5028314;28;20077;-76
2023/12/08 04:51:08;;;;;;;9.35;4.57;;;;;;;-144.78;100.00;64918.72;5022421;28;20026;-76
2023/12/08 04:53:33;;;;;;;9.95;5.25;;;;;;;-144.78;100.00;64918.72;5005389;28;20022;-76
2023/12/08 04:55:58;;;;;;;9.70;5.10;;;;;;;-144.78;100.00;64918.72;5005787;28;20142;-76
2023/12/08 04:58:24;;;;;;;10.15;4.63;;;;;;;-144.78;100.00;64918.72;5023519;28;20033;-77
2023/12/08 05:00:52;;;;;;;9.23;4.82;;;;;;;-144.78;100.00;64918.72;5011110;28;20227;-77
2023/12/08 05:03:18;;;;;;;6.00;3.33;;;;;;;-144.78;100.00;64918.72;5024827;28;20038;-77
2023/12/08 05:05:43;;;;;;;13.35;5.18;;;;;;;-144.78;100.00;64918.72;5036176;28;20087;-78
2023/12/08 05:08:08;;;;;;;9.55;4.05;;;;;;;-144.78;100.00;64918.72;5033951;28;20022;-75
2023/12/08 05:10:34;;;;;;;10.93;5.43;;;;;;;-144.78;100.00;64918.72;5016011;28;20030;-75
2023/12/08 05:13:00;;;;;;;10.95;5.80;;;;;;;-144.78;100.00;64918.72;5013703;28;20204;-78
2023/12/08 05:15:25;;;;;;;10.95;5.90;;;;;;;-144.78;100.00;64918.72;5011599;28;20034;-77
2023/12/08 05:17:50;;;;;;;10.25;5.38;;;;;;;-144.78;100.00;64918.72;5008893;28;20029;-78
2023/12/08 05:20:16;;;;;;;12.02;5.03;;;;;;;-144.78;100.00;64918.72;5030952;28;20029;-75
2023/12/08 05:22:42;;;;;;;9.15;4.90;;;;;;;-144.78;100.00;64918.72;5016190;28;20026;-73
2023/12/08 05:25:08;;;;;;;10.18;4.75;;;;;;;-144.78;100.00;64918.72;5019258;28;20029;-73
2023/12/08 05:27:34;;;;;;;12.32;5.25;;;;;;;-144.78;100.00;64918.72;5008301;28;20029;-74
2023/12/08 05:29:59;;;;;;;9.68;4.75;;;;;;;-144.78;100.00;64918.72;5004607;28;20053;-73
2023/12/08 05:32:24;;;;;;;10.25;4.68;;;;;;;-144.78;100.00;64918.72;5032060;28;20022;-77
2023/12/08 05:34:50;;;;;;;11.32;4.95;;;;;;;-144.78;100.00;64918.72;5009890;28;20068;-76
2023/12/08 05:37:15;;;;;;;9.18;4.90;;;;;;;-144.78;100.00;64918.72;5013139;28;20034;-76
2023/12/08 05:39:40;;;;;;;9.98;5.13;;;;;;;-144.78;100.00;64918.72;5010515;28;20022;-77
2023/12/08 05:42:06;;;;;;;9.82;5.32;;;;;;;-144.78;100.00;64918.72;5020248;28;20064;-77
2023/12/08 05:44:31;;;;;;;16.23;6.25;;;;;;;-144.78;100.00;64918.72;5021299;28;20104;-78
2023/12/08 05:46:56;;;;;;;13.50;6.43;;;;;;;-144.78;100.00;64918.72;5029982;28;20029;-78
2023/12/08 05:51:46;;;;;;;13.50;6.28;;;;;;;1.68;100.00;98101.84;5109760;27;20393;-59
2023/12/08 05:54:14;;;;;;;15.77;7.75;;;;;;;1.62;100.00;98120.31;5121785;28;20398;-57
2023/12/08 05:56:40;;;;;;;13.52;6.78;;;;;;;1.61;100.00;98118.66;5084003;28;20036;-56
2023/12/08 05:59:05;;;;;;;17.35;8.18;;;;;;;1.47;100.00;98122.81;5101507;28;20043;-63
2023/12/08 06:01:34;;;;;;;18.08;8.18;;;;;;;1.49;100.00;98131.44;5106748;28;20049;-57
2023/12/08 06:03:59;;;;;;;19.70;9.00;;;;;;;1.53;100.00;98138.13;5103707;28;20034;-57
2023/12/08 06:06:27;;;;;;;20.40;9.27;;;;;;;1.59;100.00;98149.97;5102393;28;20114;-56
2023/12/08 06:09:02;;;;;;;18.15;8.75;;;;;;;1.58;100.00;98154.47;5105744;28;20027;-63
2023/12/08 06:11:50;;;;;;;18.63;8.68;;;;;;;1.66;100.00;98154.50;5089490;28;20020;-67
2023/12/08 06:14:15;;;;;;;14.93;7.15;;;;;;;1.70;100.00;98155.00;5082865;28;20073;-63
2023/12/08 06:16:41;;;;;;;12.30;6.40;;;;;;;1.78;100.00;98147.00;5087966;28;20020;-63
2023/12/08 06:19:26;;;;;;;12.50;5.95;;;;;;;1.79;100.00;98146.03;5095213;28;20023;-66
2023/12/08 06:21:51;;;;;;;12.43;6.55;;;;;;;1.72;100.00;98145.00;5095536;28;20032;-63
2023/12/08 06:24:19;;;;;;;14.65;6.70;;;;;;;1.70;100.00;98155.00;5095807;28;20087;-66
2023/12/08 06:26:45;;;;;;;15.50;6.05;;;;;;;1.74;100.00;98159.03;5089949;28;20182;-63
2023/12/08 06:29:10;;;;;;;15.80;6.47;;;;;;;1.71;100.00;98154.03;5097401;28;20129;-63
2023/12/08 06:31:54;;;;;;;13.40;6.60;;;;;;;1.75;100.00;98156.19;5106864;28;20506;-63
2023/12/08 06:34:19;;;;;;;12.48;6.35;;;;;;;1.75;100.00;98148.19;5104229;28;20029;-64
2023/12/08 06:36:46;;;;;;;13.77;6.78;;;;;;;1.85;100.00;98158.72;5110075;28;20016;-64
2023/12/08 06:39:18;;;;;;;14.23;7.55;;;;;;;1.80;100.00;98160.19;5088801;28;20029;-63
2023/12/08 06:41:52;;;;;;;16.98;6.40;;;;;;;1.72;100.00;98161.84;5088308;28;20075;-63
2023/12/08 06:44:17;;;;;;;18.45;7.82;;;;;;;1.77;100.00;98155.19;5087747;28;20028;-63
2023/12/08 06:46:44;;;;;;;15.13;7.47;;;;;;;1.84;100.00;98159.72;5086771;28;20476;-63
2023/12/08 06:49:09;;;;;;;16.98;7.05;;;;;;;1.85;100.00;98161.38;5099959;28;20028;-63
2023/12/08 06:51:35;;;;;;;16.98;7.63;;;;;;;1.91;100.00;98163.41;5074661;28;20444;-63
2023/12/08 06:54:04;;;;;;;15.65;7.30;;;;;;;1.87;100.00;98167.38;5098058;28;20394;-56
2023/12/08 06:56:30;;;;;;;20.95;10.00;;;;;;;1.75;100.00;98168.69;5085257;28;20020;-56
2023/12/08 06:58:59;;;;;;;19.27;9.02;;;;;;;1.75;100.00;98168.69;5080175;28;20024;-56
2023/12/08 07:01:25;;;;;;;18.70;7.75;;;;;;;1.78;100.00;98168.34;5076792;28;20376;-56
2023/12/08 07:03:50;;;;;;;23.67;9.50;;;;;;;1.79;100.00;98166.53;5062413;28;20032;-56
2023/12/08 07:06:16;;;;;;;19.17;9.18;;;;;;;1.78;100.00;98167.53;5071502;28;20056;-58
2023/12/08 07:08:42;;;;;;;17.55;8.00;;;;;;;1.79;100.00;98164.72;5062006;28;20097;-58
2023/12/08 07:11:10;;;;;;;15.65;8.38;;;;;;;1.82;100.00;98161.72;5075829;28;20024;-64
2023/12/08 07:13:36;;;;;;;20.33;9.10;;;;;;;1.86;100.00;98168.41;5076616;28;20036;-64
2023/12/08 07:16:02;;;;;;;16.65;8.32;;;;;;;1.85;100.00;98171.22;5079991;28;20592;-64
2023/12/08 07:18:28;;;;;;;20.48;8.68;;;;;;;1.86;100.00;98173.72;5094518;28;20074;-64
2023/12/08 07:20:53;;;;;;;26.65;11.07;;;;;;;1.95;100.00;98177.25;5094422;28;20024;-64
2023/12/08 07:23:20;;;;;;;23.00;10.48;;;;;;;1.97;100.00;98168.06;5086692;28;20025;-64
2023/12/08 07:25:45;;;;;;;25.70;10.07;;;;;;;2.00;100.00;98174.91;5076332;28;20043;-65
2023/12/08 07:28:11;;;;;;;23.98;11.02;;;;;;;2.07;100.00;98177.75;5092585;28;20024;-64
2023/12/08 07:30:37;;;;;;;29.38;11.23;;;;;;;2.11;100.00;98171.09;5080730;28;20503;-64
2023/12/08 07:33:03;;;;;;;30.70;11.20;;;;;;;2.09;100.00;98181.91;5084697;28;20032;-64
2023/12/08 07:35:29;;;;;;;24.20;10.55;;;;;;;2.12;100.00;98175.41;5085022;28;20110;-63
2023/12/08 07:37:55;;;;;;;18.80;8.20;;;;;;;2.16;100.00;98182.09;5075583;28;20068;-63
2023/12/08 07:40:20;;;;;;;16.25;8.77;;;;;;;2.12;100.00;98175.41;5078568;28;20535;-63
2023/12/08 07:42:46;;;;;;;17.58;9.23;;;;;;;2.16;100.00;98184.78;5080427;28;20035;-63
2023/12/08 07:45:18;;;;;;;20.30;8.57;;;;;;;2.22;100.00;98180.59;5090476;28;20039;-63
2023/12/08 07:47:44;;;;;;;19.08;8.15;;;;;;;2.21;100.00;98173.63;5082709;28;20032;-63
2023/12/08 07:50:10;;;;;;;15.43;7.82;;;;;;;2.27;100.00;98179.09;5082366;28;20016;-64
2023/12/08 07:52:36;;;;;;;17.20;7.10;;;;;;;2.28;100.00;98180.78;5063199;28;20043;-64
2023/12/08 07:55:01;;;;;;;17.92;8.00;;;;;;;2.36;100.00;98175.44;5081894;28;20032;-63
2023/12/08 07:57:26;;;;;;;15.45;7.15;;;;;;;2.44;100.00;98184.44;5077048;28;20035;-64
2023/12/08 07:59:52;;;;;;;14.65;7.45;;;;;;;2.43;100.00;98183.59;5090777;28;20073;-64
2023/12/08 08:02:17;;;;;;;20.50;8.65;;;;;;;2.50;100.00;98189.13;5080456;28;20060;-64
2023/12/08 08:04:45;;;;;;;16.40;7.85;;;;;;;2.53;100.00;98189.63;5070834;28;20135;-64
2023/12/08 08:07:10;;;;;;;18.65;9.13;;;;;;;2.55;100.00;98190.28;5083434;28;20059;-64
2023/12/08 08:09:55;;;;;;;20.02;8.75;;;;;;;2.59;100.00;98185.44;5082286;28;20031;-66
2023/12/08 08:12:20;;;;;;;17.10;7.60;;;;;;;2.70;100.00;98197.63;5085621;28;20046;-64
2023/12/08 08:14:49;;;;;;;18.65;7.43;;;;;;;2.85;100.00;98188.75;5082328;28;20028;-66
2023/12/08 08:17:14;;;;;;;13.95;6.50;;;;;;;2.88;100.00;98192.09;5082430;28;20033;-65
2023/12/08 08:23:01;;;;;;;13.45;6.60;;;;;;;2.99;100.00;98191.75;5070359;28;20055;-64
2023/12/08 08:25:27;;;;;;;17.70;7.78;;;;;;;2.99;100.00;98195.25;5080985;28;20035;-63
2023/12/08 08:27:53;;;;;;;15.45;7.05;;;;;;;3.12;100.00;98188.53;5083686;28;20024;-64
2023/12/08 08:30:20;;;;;;;17.45;7.03;;;;;;;3.15;100.00;98197.06;5056452;28;20067;-64
2023/12/08 08:32:45;;;;;;;14.63;6.78;;;;;;;3.20;100.00;98192.03;5070441;28;20067;-63
2023/12/08 08:35:11;;;;;;;11.98;7.43;;;;;;;3.30;100.00;98202.50;5068120;28;20399;-58
2023/12/08 08:37:36;;;;;;;10.52;5.72;;;;;;;3.32;100.00;98211.19;5066847;28;20118;-58
2023/12/08 08:40:05;;;;;;;17.08;6.95;;;;;;;3.40;100.00;98202.31;5065754;28;20040;-58
2023/12/08 08:42:30;;;;;;;13.82;6.13;;;;;;;3.46;100.00;98207.00;5066616;28;20468;-58
2023/12/08 08:44:55;;;;;;;17.77;8.18;;;;;;;3.47;100.00;98205.97;5061589;28;20086;-58
2023/12/08 08:47:21;;;;;;;15.65;7.50;;;;;;;3.50;100.00;98205.63;5060154;28;20040;-58
2023/12/08 08:49:46;;;;;;;15.52;7.70;;;;;;;3.44;100.00;98209.00;5071562;28;20581;-63
2023/12/08 08:52:12;;;;;;;14.57;6.45;;;;;;;3.49;100.00;98212.00;5066606;28;20472;-63
2023/12/08 08:54:38;;;;;;;14.10;7.18;;;;;;;3.54;100.00;98219.47;5089774;28;20028;-63
2023/12/08 08:57:04;;;;;;;17.30;6.22;;;;;;;3.50;100.00;98214.47;5083789;28;20077;-62
2023/12/08 08:59:30;;;;;;;16.40;7.35;;;;;;;3.60;100.00;98214.28;5089167;28;20059;-57
2023/12/08 09:01:55;;;;;;;17.55;7.28;;;;;;;3.65;100.00;98217.28;5080450;28;20376;-58
2023/12/08 09:04:21;;;;;;;14.35;6.07;;;;;;;3.69;100.00;98223.94;5082724;28;20035;-57
2023/12/08 09:06:51;;;;;;;14.07;6.72;;;;;;;3.73;100.00;98225.25;5074436;28;20423;-60
2023/12/08 09:09:16;;;;;;;13.60;6.50;;;;;;;3.74;100.00;98226.09;5077804;28;20024;-62
2023/12/08 09:11:43;;;;;;;15.88;6.90;;;;;;;3.80;100.00;98227.22;5060177;28;20031;-62
2023/12/08 09:14:09;;;;;;;19.77;8.10;;;;;;;3.84;100.00;98207.16;5058427;28;20134;-62
2023/12/08 09:16:35;;;;;;;12.95;6.85;;;;;;;3.84;100.00;98223.22;5068354;28;20538;-62
2023/12/08 09:19:00;;;;;;;15.48;7.22;;;;;;;3.83;100.00;98222.38;5064692;28;21027;-62
2023/12/08 09:21:26;;;;;;;12.40;6.47;;;;;;;3.84;100.00;98215.19;5069023;28;20048;-57
2023/12/08 09:23:52;;;;;;;15.85;7.75;;;;;;;3.87;100.00;98226.34;5071016;28;20081;-62
2023/12/08 09:26:17;;;;;;;16.15;7.38;;;;;;;3.97;100.00;98223.47;5070377;28;20100;-62
2023/12/08 09:28:42;;;;;;;15.15;7.65;;;;;;;4.01;100.00;98226.63;5063662;28;20033;-62
2023/12/08 09:31:08;;;;;;;14.68;7.40;;;;;;;4.08;100.00;98228.41;5076230;28;20031;-63
2023/12/08 09:33:33;;;;;;;13.95;7.43;;;;;;;4.07;100.00;98233.97;5079460;28;20360;-62
2023/12/08 09:35:59;;;;;;;14.07;6.90;;;;;;;4.12;100.00;98232.44;5087560;28;20020;-62
2023/12/08 09:38:24;;;;;;;14.55;6.88;;;;;;;4.15;100.00;98228.56;5076026;28;20071;-62
2023/12/08 09:40:51;;;;;;;10.60;6.25;;;;;;;4.15;100.00;98231.25;5084342;28;20368;-62
2023/12/08 09:43:22;;;;;;;12.35;6.60;;;;;;;4.20;100.00;98223.50;5082458;28;20025;-62
2023/12/08 09:45:48;;;;;;;16.58;7.53;;;;;;;4.23;100.00;98227.69;5085695;28;20422;-62
2023/12/08 09:48:13;;;;;;;12.13;6.20;;;;;;;4.30;100.00;98225.97;5074176;28;20024;-62
2023/12/08 09:50:40;;;;;;;12.95;6.97;;;;;;;4.27;100.00;98219.13;5060179;28;20128;-62
2023/12/08 09:53:07;;;;;;;14.27;6.63;;;;;;;4.33;100.00;98222.94;5066707;28;20028;-62
2023/12/08 09:55:34;;;;;;;10.88;6.13;;;;;;;4.37;100.00;98221.53;5077758;28;21298;-62
2023/12/08 09:58:01;;;;;;;12.27;5.95;;;;;;;4.45;100.00;98213.44;5084579;28;20472;-62
2023/12/08 10:00:30;;;;;;;9.18;5.47;;;;;;;4.50;100.00;98216.44;5072604;28;20017;-62
2023/12/08 10:02:55;;;;;;;12.13;6.53;;;;;;;4.49;100.00;98220.13;5082580;28;20104;-61
2023/12/08 10:05:22;;;;;;;14.05;8.65;;;;;;;4.50;100.00;98205.72;5089723;28;20459;-69
2023/12/08 10:07:50;;;;;;;17.08;8.55;;;;;;;4.53;100.00;98209.88;5085601;28;20532;-62
2023/12/08 10:10:16;;;;;;;12.68;7.72;;;;;;;4.58;100.00;98213.72;5088930;28;20020;-62
2023/12/08 10:12:44;;;;;;;13.50;6.57;;;;;;;4.66;100.00;98201.25;5092454;28;20028;-62
2023/12/08 10:15:11;;;;;;;15.90;7.28;;;;;;;4.61;100.00;98208.00;5063888;28;20051;-61
2023/12/08 10:17:51;;;;;;;11.90;6.47;;;;;;;4.69;100.00;98200.88;5082831;28;20012;-61
2023/12/08 10:20:18;;;;;;;16.60;7.78;;;;;;;4.70;100.00;98202.56;5091601;28;20016;-62
2023/12/08 10:22:55;;;;;;;14.65;7.18;;;;;;;4.70;100.00;98199.88;5092434;28;20395;-61
2023/12/08 10:25:25;;;;;;;15.88;6.53;;;;;;;4.74;100.00;98196.66;5083537;28;20050;-61
2023/12/08 10:27:53;;;;;;;11.98;6.10;;;;;;;4.77;100.00;98190.94;5082775;28;20029;-61
2023/12/08 10:30:19;;;;;;;10.95;5.63;;;;;;;4.70;100.00;98195.34;5077182;28;20021;-61
2023/12/08 10:32:46;;;;;;;14.35;5.65;;;;;;;4.74;100.00;98185.09;5091627;28;20475;-62
2023/12/08 10:35:12;;;;;;;8.32;5.03;;;;;;;4.76;100.00;98204.50;5093304;28;20101;-63
2023/12/08 10:37:39;;;;;;;12.30;6.63;;;;;;;4.79;100.00;98204.13;5094169;28;20081;-57
2023/12/08 10:40:07;;;;;;;15.77;7.97;;;;;;;4.72;100.00;98200.53;5083374;28;20383;-62
2023/12/08 10:42:34;;;;;;;16.02;8.68;;;;;;;4.68;100.00;98204.56;5093210;28;20020;-62
2023/12/08 10:45:00;;;;;;;11.77;7.57;;;;;;;4.71;100.00;98204.22;5092491;28;20395;-63
2023/12/08 10:47:26;;;;;;;12.60;6.43;;;;;;;4.78;100.00;98205.16;5083214;28;20017;-63
2023/12/08 10:49:54;;;;;;;15.25;6.82;;;;;;;4.85;100.00;98214.16;5095002;28;20107;-63
2023/12/08 10:52:21;;;;;;;14.00;6.38;;;;;;;4.95;100.00;98212.06;5090712;28;20028;-63
2023/12/08 10:54:47;;;;;;;12.63;6.47;;;;;;;4.97;100.00;98211.84;5078776;28;20745;-63
2023/12/08 10:57:12;;;;;;;12.25;4.97;;;;;;;5.09;100.00;98205.03;5092756;28;20035;-56
2023/12/08 10:59:44;;;;;;;10.13;5.30;;;;;;;5.07;100.00;98200.88;5078823;28;20109;-57
2023/12/08 11:02:20;;;;;;;12.60;5.53;;;;;;;5.01;100.00;98203.28;5079467;28;20024;-57
2023/12/08 11:04:53;;;;;;;12.45;6.00;;;;;;;5.01;100.00;98189.88;5077841;28;20025;-56
2023/12/08 11:07:27;;;;;;;10.60;4.72;;;;;;;5.01;100.00;98197.91;5075265;28;20792;-57
2023/12/08 11:09:57;;;;;;;11.90;5.65;;;;;;;5.05;100.00;98201.88;5082086;28;20468;-56
2023/12/08 11:12:26;;;;;;;13.45;5.30;;;;;;;5.13;100.00;98194.75;5072162;28;20032;-57
2023/12/08 11:15:05;;;;;;;;;;;;;;;5.14;100.00;98191.09;5101001;28;20033;-56
2023/12/08 11:17:43;;;;;;;9.50;5.10;;;;;;;5.18;100.00;98195.88;5062716;28;19944;-57